Time,TemperatureF,DewpointF,PressureIn,WindDirection,WindDirectionDegrees,WindSpeedMPH,WindSpeedGustMPH,Humidity,HourlyPrecipIn,Conditions,Clouds,dailyrainin,SoftwareType,DateUTC
2013-03-30 00:00:00,35.8,26.3,30.17,East,92,0.0,0.0,68,0.00,,---,0.00,VWS V14.01,2013-03-30 04:00:00,
2013-03-30 00:05:00,35.5,26.0,30.17,East,93,0.0,0.0,68,0.00,,---,0.00,VWS V14.01,2013-03-30 04:05:00,
2013-03-30 00:10:00,35.2,26.1,30.17,East,93,0.0,0.0,69,0.00,,---,0.00,VWS V14.01,2013-03-30 04:10:00,
2013-03-30 00:15:00,34.9,25.8,30.16,East,93,0.0,0.0,69,0.00,,---,0.00,VWS V14.01,2013-03-30 04:15:00,
2013-03-30 00:20:00,34.8,26.0,30.16,East,93,0.0,0.0,70,0.00,,---,0.00,VWS V14.01,2013-03-30 04:20:00,
2013-03-30 00:25:00,34.6,26.2,30.16,East,92,0.0,0.0,71,0.00,,---,0.00,VWS V14.01,2013-03-30 04:25:00,
2013-03-30 00:30:00,34.4,26.0,30.16,East,92,1.0,2.0,71,0.00,,---,0.00,VWS V14.01,2013-03-30 04:30:00,
2013-03-30 00:35:00,34.2,25.8,30.16,East,92,0.0,2.0,71,0.00,,---,0.00,VWS V14.01,2013-03-30 04:35:00,
2013-03-30 00:40:00,34.1,25.7,30.16,East,93,0.0,2.0,71,0.00,,---,0.00,VWS V14.01,2013-03-30 04:40:00,
2013-03-30 00:45:00,33.8,25.7,30.16,East,92,0.0,2.0,72,0.00,,---,0.00,VWS V14.01,2013-03-30 04:45:00,
2013-03-30 00:50:00,33.7,25.6,30.16,East,93,0.0,2.0,72,0.00,,---,0.00,VWS V14.01,2013-03-30 04:50:00,
2013-03-30 00:55:00,33.5,25.8,30.16,East,92,0.0,2.0,73,0.00,,---,0.00,VWS V14.01,2013-03-30 04:55:00,
2013-03-30 01:00:00,33.3,25.6,30.16,East,93,0.0,2.0,73,0.00,,---,0.00,VWS V14.01,2013-03-30 05:00:00,
2013-03-30 01:05:00,33.2,25.5,30.15,East,92,0.0,0.0,73,0.00,,---,0.00,VWS V14.01,2013-03-30 05:05:00,
2013-03-30 01:10:00,33.2,25.5,30.15,East,93,0.0,0.0,73,0.00,,---,0.00,VWS V14.01,2013-03-30 05:10:00,
2013-03-30 01:15:00,33.3,25.6,30.15,East,90,0.0,3.0,73,0.00,,---,0.00,VWS V14.01,2013-03-30 05:15:00,
2013-03-30 01:20:00,33.2,25.5,30.15,East,90,0.0,3.0,73,0.00,,---,0.00,VWS V14.01,2013-03-30 05:20:00,
2013-03-30 01:25:00,33.0,25.3,30.15,East,90,0.0,3.0,73,0.00,,---,0.00,VWS V14.01,2013-03-30 05:25:00,
2013-03-30 01:30:00,32.9,25.2,30.15,East,89,0.0,3.0,73,0.00,,---,0.00,VWS V14.01,2013-03-30 05:30:00,
2013-03-30 01:35:00,32.7,25.3,30.16,East,90,0.0,3.0,74,0.00,,---,0.00,VWS V14.01,2013-03-30 05:35:00,
2013-03-30 01:40:00,32.5,25.1,30.16,West,281,7.0,10.0,74,0.00,,---,0.00,VWS V14.01,2013-03-30 05:40:00,
2013-03-30 01:45:00,32.6,25.2,30.16,WNW,294,1.0,10.0,74,0.00,,---,0.00,VWS V14.01,2013-03-30 05:45:00,
2013-03-30 01:50:00,33.0,25.6,30.16,WNW,299,3.0,11.0,74,0.00,,---,0.00,VWS V14.01,2013-03-30 05:50:00,
2013-03-30 01:55:00,33.7,26.0,30.16,NW,304,3.0,11.0,73,0.00,,---,0.00,VWS V14.01,2013-03-30 05:55:00,
2013-03-30 02:00:00,34.2,26.1,30.16,NW,322,3.0,11.0,72,0.00,,---,0.00,VWS V14.01,2013-03-30 06:00:00,
2013-03-30 02:05:00,34.6,26.2,30.16,NW,322,3.0,4.0,71,0.00,,---,0.00,VWS V14.01,2013-03-30 06:05:00,
2013-03-30 02:10:00,34.9,26.1,30.16,NW,321,2.0,4.0,70,0.00,,---,0.00,VWS V14.01,2013-03-30 06:10:00,
2013-03-30 02:15:00,35.2,26.1,30.16,NW,321,0.0,4.0,69,0.00,,---,0.00,VWS V14.01,2013-03-30 06:15:00,
2013-03-30 02:20:00,35.4,25.9,30.15,NW,321,0.0,4.0,68,0.00,,---,0.00,VWS V14.01,2013-03-30 06:20:00,
2013-03-30 02:25:00,35.3,25.8,30.15,NW,321,0.0,4.0,68,0.00,,---,0.00,VWS V14.01,2013-03-30 06:25:00,
2013-03-30 02:30:00,35.0,25.5,30.15,NW,321,0.0,4.0,68,0.00,,---,0.00,VWS V14.01,2013-03-30 06:30:00,
2013-03-30 02:35:00,34.5,25.4,30.15,NW,321,0.0,4.0,69,0.00,,---,0.00,VWS V14.01,2013-03-30 06:35:00,
2013-03-30 02:40:00,34.4,25.6,30.15,NW,321,0.0,4.0,70,0.00,,---,0.00,VWS V14.01,2013-03-30 06:40:00,
2013-03-30 02:45:00,34.4,25.6,30.15,NW,321,0.0,4.0,70,0.00,,---,0.00,VWS V14.01,2013-03-30 06:45:00,
2013-03-30 02:50:00,34.4,25.3,30.15,NW,321,0.0,4.0,69,0.00,,---,0.00,VWS V14.01,2013-03-30 06:50:00,
2013-03-30 02:55:00,34.2,25.8,30.15,NW,321,0.0,4.0,71,0.00,,---,0.00,VWS V14.01,2013-03-30 06:55:00,
2013-03-30 03:00:00,33.9,25.8,30.15,NW,321,0.0,4.0,72,0.00,,---,0.00,VWS V14.01,2013-03-30 07:00:00,
2013-03-30 03:05:00,33.6,25.5,30.15,NW,321,0.0,0.0,72,0.00,,---,0.00,VWS V14.01,2013-03-30 07:05:00,
2013-03-30 03:10:00,33.4,25.4,30.15,NW,321,0.0,0.0,72,0.00,,---,0.00,VWS V14.01,2013-03-30 07:10:00,
2013-03-30 03:15:00,33.2,25.2,30.15,NW,321,0.0,0.0,72,0.00,,---,0.00,VWS V14.01,2013-03-30 07:15:00,
2013-03-30 03:20:00,33.0,25.3,30.15,NW,321,0.0,0.0,73,0.00,,---,0.00,VWS V14.01,2013-03-30 07:20:00,
2013-03-30 03:25:00,32.7,25.0,30.15,NW,321,0.0,0.0,73,0.00,,---,0.00,VWS V14.01,2013-03-30 07:25:00,
2013-03-30 03:30:00,32.6,24.9,30.15,NW,321,0.0,0.0,73,0.00,,---,0.00,VWS V14.01,2013-03-30 07:30:00,
2013-03-30 03:35:00,32.5,24.8,30.15,NW,321,1.0,1.0,73,0.00,,---,0.00,VWS V14.01,2013-03-30 07:35:00,
2013-03-30 03:40:00,32.5,24.8,30.15,NW,321,1.0,2.0,73,0.00,,---,0.00,VWS V14.01,2013-03-30 07:40:00,
2013-03-30 03:45:00,32.5,24.8,30.15,NW,321,0.0,2.0,73,0.00,,---,0.00,VWS V14.01,2013-03-30 07:45:00,
2013-03-30 03:50:00,32.3,24.6,30.15,NW,321,0.0,2.0,73,0.00,,---,0.00,VWS V14.01,2013-03-30 07:50:00,
2013-03-30 03:55:00,32.1,24.8,30.15,NW,321,0.0,2.0,74,0.00,,---,0.00,VWS V14.01,2013-03-30 07:55:00,
2013-03-30 04:00:00,31.9,24.6,30.15,NW,321,0.0,2.0,74,0.00,,---,0.00,VWS V14.01,2013-03-30 08:00:00,
2013-03-30 04:05:00,31.7,24.7,30.15,NW,321,0.0,1.0,75,0.00,,---,0.00,VWS V14.01,2013-03-30 08:05:00,
2013-03-30 04:10:00,31.7,24.7,30.15,NW,321,1.0,3.0,75,0.00,,---,0.00,VWS V14.01,2013-03-30 08:10:00,
2013-03-30 04:15:00,31.8,25.1,30.15,NW,321,2.0,3.0,76,0.00,,---,0.00,VWS V14.01,2013-03-30 08:15:00,
2013-03-30 04:20:00,31.9,24.9,30.15,NW,321,2.0,3.0,75,0.00,,---,0.00,VWS V14.01,2013-03-30 08:20:00,
2013-03-30 04:25:00,31.9,24.9,30.15,NW,321,0.0,3.0,75,0.00,,---,0.00,VWS V14.01,2013-03-30 08:25:00,
2013-03-30 04:30:00,31.8,24.8,30.15,NW,321,0.0,3.0,75,0.00,,---,0.00,VWS V14.01,2013-03-30 08:30:00,
2013-03-30 04:35:00,31.6,24.6,30.14,NW,321,0.0,3.0,75,0.00,,---,0.00,VWS V14.01,2013-03-30 08:35:00,
2013-03-30 04:40:00,31.7,24.7,30.14,NW,321,0.0,3.0,75,0.00,,---,0.00,VWS V14.01,2013-03-30 08:40:00,
2013-03-30 04:45:00,31.6,24.6,30.14,NW,321,0.0,3.0,75,0.00,,---,0.00,VWS V14.01,2013-03-30 08:45:00,
2013-03-30 04:50:00,31.6,24.6,30.14,NW,321,0.0,3.0,75,0.00,,---,0.00,VWS V14.01,2013-03-30 08:50:00,
2013-03-30 04:55:00,31.7,24.7,30.14,NW,321,0.0,3.0,75,0.00,,---,0.00,VWS V14.01,2013-03-30 08:55:00,
2013-03-30 05:00:00,31.9,24.9,30.14,NW,321,3.0,3.0,75,0.00,,---,0.00,VWS V14.01,2013-03-30 09:00:00,
2013-03-30 05:05:00,32.2,24.9,30.14,NW,321,0.0,3.0,74,0.00,,---,0.00,VWS V14.01,2013-03-30 09:05:00,
2013-03-30 05:10:00,32.2,24.5,30.14,NW,321,0.0,3.0,73,0.00,,---,0.00,VWS V14.01,2013-03-30 09:10:00,
2013-03-30 05:15:00,32.1,24.4,30.14,NW,321,0.0,3.0,73,0.00,,---,0.00,VWS V14.01,2013-03-30 09:15:00,
2013-03-30 05:20:00,31.9,24.2,30.14,NW,321,0.0,3.0,73,0.00,,---,0.00,VWS V14.01,2013-03-30 09:20:00,
2013-03-30 05:25:00,31.7,24.0,30.14,NW,321,0.0,3.0,73,0.00,,---,0.00,VWS V14.01,2013-03-30 09:25:00,
2013-03-30 05:30:00,31.4,23.8,30.14,NW,321,0.0,3.0,73,0.00,,---,0.00,VWS V14.01,2013-03-30 09:30:00,
2013-03-30 05:34:00,31.2,23.9,30.14,NW,321,0.0,3.0,74,0.00,,---,0.00,VWS V14.01,2013-03-30 09:34:00,
2013-03-30 05:39:00,31.0,24.0,30.15,NW,321,0.0,3.0,75,0.00,,---,0.00,VWS V14.01,2013-03-30 09:39:00,
2013-03-30 05:44:00,31.1,24.1,30.14,NW,321,1.0,3.0,75,0.00,,---,0.00,VWS V14.01,2013-03-30 09:44:00,
2013-03-30 05:49:00,31.1,24.1,30.14,NW,321,2.0,3.0,75,0.00,,---,0.00,VWS V14.01,2013-03-30 09:49:00,
2013-03-30 05:54:00,31.0,24.0,30.14,NW,321,0.0,3.0,75,0.00,,---,0.00,VWS V14.01,2013-03-30 09:54:00,
2013-03-30 05:59:00,31.0,24.3,30.14,NW,321,1.0,3.0,76,0.00,,---,0.00,VWS V14.01,2013-03-30 09:59:00,
2013-03-30 06:04:00,31.1,24.4,30.14,NW,321,0.0,2.0,76,0.00,,---,0.00,VWS V14.01,2013-03-30 10:04:00,
2013-03-30 06:09:00,31.4,24.7,30.14,NW,321,1.0,2.0,76,0.00,,---,0.00,VWS V14.01,2013-03-30 10:09:00,
2013-03-30 06:14:00,31.4,24.4,30.14,NW,321,0.0,2.0,75,0.00,,---,0.00,VWS V14.01,2013-03-30 10:14:00,
2013-03-30 06:19:00,31.3,24.3,30.14,NW,321,0.0,2.0,75,0.00,,---,0.00,VWS V14.01,2013-03-30 10:19:00,
2013-03-30 06:24:00,31.2,24.2,30.14,NW,321,2.0,2.0,75,0.00,,---,0.00,VWS V14.01,2013-03-30 10:24:00,
2013-03-30 06:29:00,31.2,24.2,30.14,NW,321,0.0,2.0,75,0.00,,---,0.00,VWS V14.01,2013-03-30 10:29:00,
2013-03-30 06:34:00,31.0,24.0,30.14,NW,321,0.0,2.0,75,0.00,,---,0.00,VWS V14.01,2013-03-30 10:34:00,
2013-03-30 06:39:00,30.9,23.9,30.14,NW,321,0.0,2.0,75,0.00,,---,0.00,VWS V14.01,2013-03-30 10:39:00,
2013-03-30 06:44:00,30.8,24.1,30.14,NW,321,0.0,2.0,76,0.00,,---,0.00,VWS V14.01,2013-03-30 10:44:00,
2013-03-30 06:49:00,30.7,24.0,30.14,NW,321,0.0,2.0,76,0.00,,---,0.00,VWS V14.01,2013-03-30 10:49:00,
2013-03-30 06:54:00,30.7,24.0,30.14,NW,321,0.0,2.0,76,0.00,,---,0.00,VWS V14.01,2013-03-30 10:54:00,
2013-03-30 06:59:00,30.7,24.0,30.15,NW,321,2.0,3.0,76,0.00,,---,0.00,VWS V14.01,2013-03-30 10:59:00,
2013-03-30 07:04:00,30.7,24.0,30.15,NW,321,2.0,3.0,76,0.00,,---,0.00,VWS V14.01,2013-03-30 11:04:00,
2013-03-30 07:09:00,30.7,24.0,30.15,NW,321,1.0,3.0,76,0.00,,---,0.00,VWS V14.01,2013-03-30 11:09:00,
2013-03-30 07:14:00,30.7,24.4,30.15,NW,321,0.0,3.0,77,0.00,,---,0.00,VWS V14.01,2013-03-30 11:14:00,
2013-03-30 07:19:00,30.5,23.9,30.15,NW,321,0.0,3.0,76,0.00,,---,0.00,VWS V14.01,2013-03-30 11:19:00,
2013-03-30 07:24:00,30.3,24.0,30.15,NW,321,0.0,3.0,77,0.00,,---,0.00,VWS V14.01,2013-03-30 11:24:00,
2013-03-30 07:29:00,30.2,23.9,30.15,NW,321,0.0,3.0,77,0.00,,---,0.00,VWS V14.01,2013-03-30 11:29:00,
2013-03-30 07:34:00,30.1,23.8,30.15,NW,321,0.0,3.0,77,0.00,,---,0.00,VWS V14.01,2013-03-30 11:34:00,
2013-03-30 07:39:00,30.2,23.9,30.15,NW,321,0.0,3.0,77,0.00,,---,0.00,VWS V14.01,2013-03-30 11:39:00,
2013-03-30 07:44:00,30.2,23.9,30.15,NW,321,0.0,3.0,77,0.00,,---,0.00,VWS V14.01,2013-03-30 11:44:00,
2013-03-30 07:49:00,30.4,24.4,30.16,NW,321,0.0,3.0,78,0.00,,---,0.00,VWS V14.01,2013-03-30 11:49:00,
2013-03-30 07:54:00,30.7,24.7,30.15,NW,321,0.0,3.0,78,0.00,,---,0.00,VWS V14.01,2013-03-30 11:54:00,
2013-03-30 07:59:00,31.0,26.5,30.15,NW,321,0.0,3.0,83,0.00,,---,0.00,VWS V14.01,2013-03-30 11:59:00,
2013-03-30 08:04:00,31.2,24.8,30.16,NW,321,0.0,2.0,77,0.00,,---,0.00,VWS V14.01,2013-03-30 12:04:00,
2013-03-30 08:09:00,31.5,24.8,30.16,NW,321,1.0,2.0,76,0.00,,---,0.00,VWS V14.01,2013-03-30 12:09:00,
2013-03-30 08:14:00,31.8,25.1,30.16,NW,321,0.0,2.0,76,0.00,,---,0.00,VWS V14.01,2013-03-30 12:14:00,
2013-03-30 08:19:00,32.1,25.4,30.16,NW,321,0.0,2.0,76,0.00,,---,0.00,VWS V14.01,2013-03-30 12:19:00,
2013-03-30 08:24:00,32.5,25.5,30.16,NW,321,1.0,2.0,75,0.00,,---,0.00,VWS V14.01,2013-03-30 12:24:00,
2013-03-30 08:29:00,32.8,25.4,30.16,NW,321,0.0,2.0,74,0.00,,---,0.00,VWS V14.01,2013-03-30 12:29:00,
2013-03-30 08:34:00,33.3,25.9,30.16,NW,321,0.0,2.0,74,0.00,,---,0.00,VWS V14.01,2013-03-30 12:34:00,
2013-03-30 08:39:00,33.9,26.2,30.16,NW,321,0.0,2.0,73,0.00,,---,0.00,VWS V14.01,2013-03-30 12:39:00,
2013-03-30 08:44:00,34.4,26.3,30.16,NW,321,0.0,2.0,72,0.00,,---,0.00,VWS V14.01,2013-03-30 12:44:00,
2013-03-30 08:49:00,35.1,26.7,30.16,NW,321,0.0,2.0,71,0.00,,---,0.00,VWS V14.01,2013-03-30 12:49:00,
2013-03-30 08:54:00,35.7,26.5,30.16,NW,321,0.0,2.0,69,0.00,,---,0.00,VWS V14.01,2013-03-30 12:54:00,
2013-03-30 08:59:00,36.3,26.8,30.16,NW,321,0.0,2.0,68,0.00,,---,0.00,VWS V14.01,2013-03-30 12:59:00,
2013-03-30 09:04:00,37.0,27.1,30.16,NW,321,0.0,0.0,67,0.00,,---,0.00,VWS V14.01,2013-03-30 13:04:00,
2013-03-30 09:09:00,38.0,27.7,30.15,NW,321,0.0,0.0,66,0.00,,---,0.00,VWS V14.01,2013-03-30 13:09:00,
2013-03-30 09:14:00,38.9,27.8,30.15,NW,321,0.0,0.0,64,0.00,,---,0.00,VWS V14.01,2013-03-30 13:14:00,
2013-03-30 09:19:00,40.0,28.0,30.15,NW,321,0.0,0.0,62,0.00,,---,0.00,VWS V14.01,2013-03-30 13:19:00,
2013-03-30 09:24:00,40.8,28.0,30.15,NW,321,0.0,0.0,60,0.00,,---,0.00,VWS V14.01,2013-03-30 13:24:00,
2013-03-30 09:29:00,41.4,28.6,30.15,NW,321,0.0,0.0,60,0.00,,---,0.00,VWS V14.01,2013-03-30 13:29:00,
2013-03-30 09:34:00,42.6,28.9,30.14,NW,321,0.0,0.0,58,0.00,,---,0.00,VWS V14.01,2013-03-30 13:34:00,
2013-03-30 09:39:00,43.1,28.9,30.14,NW,321,0.0,1.0,57,0.00,,---,0.00,VWS V14.01,2013-03-30 13:39:00,
2013-03-30 09:44:00,43.4,28.8,30.14,NW,321,0.0,2.0,56,0.00,,---,0.00,VWS V14.01,2013-03-30 13:44:00,
2013-03-30 09:49:00,43.9,29.2,30.14,NW,317,1.0,2.0,56,0.00,,---,0.00,VWS V14.01,2013-03-30 13:49:00,
2013-03-30 09:54:00,44.5,29.4,30.13,NW,313,0.0,2.0,55,0.00,,---,0.00,VWS V14.01,2013-03-30 13:54:00,
2013-03-30 09:59:00,45.0,29.4,30.13,SSW,211,1.0,3.0,54,0.00,,---,0.00,VWS V14.01,2013-03-30 13:59:00,
2013-03-30 10:04:00,45.2,30.0,30.13,SSW,207,1.0,2.0,55,0.00,,---,0.00,VWS V14.01,2013-03-30 14:04:00,
2013-03-30 10:09:00,46.2,30.5,30.13,SE,142,3.0,4.0,54,0.00,,---,0.00,VWS V14.01,2013-03-30 14:09:00,
2013-03-30 10:14:00,46.5,30.3,30.13,SE,144,0.0,5.0,53,0.00,,---,0.00,VWS V14.01,2013-03-30 14:14:00,
2013-03-30 10:19:00,47.3,30.6,30.13,ESE,119,2.0,5.0,52,0.00,,---,0.00,VWS V14.01,2013-03-30 14:19:00,
2013-03-30 10:24:00,47.4,30.7,30.12,SSE,159,3.0,5.0,52,0.00,,---,0.00,VWS V14.01,2013-03-30 14:24:00,
2013-03-30 10:29:00,47.0,30.3,30.12,South,184,2.0,5.0,52,0.00,,---,0.00,VWS V14.01,2013-03-30 14:29:00,
2013-03-30 10:34:00,47.3,31.0,30.12,SE,130,0.0,5.0,53,0.00,,---,0.00,VWS V14.01,2013-03-30 14:34:00,
2013-03-30 10:39:00,48.1,30.8,30.12,South,171,3.0,5.0,51,0.00,,---,0.00,VWS V14.01,2013-03-30 14:39:00,
2013-03-30 10:44:00,48.5,31.2,30.11,SSE,153,2.0,5.0,51,0.00,,---,0.00,VWS V14.01,2013-03-30 14:44:00,
2013-03-30 10:49:00,48.8,30.5,30.11,SSW,208,5.0,5.0,49,0.00,,---,0.00,VWS V14.01,2013-03-30 14:49:00,
2013-03-30 10:54:00,48.5,30.2,30.11,SE,142,3.0,5.0,49,0.00,,---,0.00,VWS V14.01,2013-03-30 14:54:00,
2013-03-30 10:59:00,48.9,30.1,30.11,SE,146,0.0,5.0,48,0.00,,---,0.00,VWS V14.01,2013-03-30 14:59:00,
2013-03-30 11:04:00,49.8,30.4,30.12,SE,126,2.0,3.0,47,0.00,,---,0.00,VWS V14.01,2013-03-30 15:04:00,
2013-03-30 11:09:00,49.8,28.8,30.11,South,180,3.0,9.0,44,0.00,,---,0.00,VWS V14.01,2013-03-30 15:09:00,
2013-03-30 11:14:00,49.1,28.7,30.12,SW,220,8.0,10.0,45,0.00,,---,0.00,VWS V14.01,2013-03-30 15:14:00,
2013-03-30 11:19:00,49.2,28.8,30.12,SSE,148,4.0,10.0,45,0.00,,---,0.00,VWS V14.01,2013-03-30 15:19:00,
2013-03-30 11:24:00,49.2,28.2,30.11,SSE,163,1.0,10.0,44,0.00,,---,0.00,VWS V14.01,2013-03-30 15:24:00,
2013-03-30 11:29:00,49.2,28.2,30.11,SE,146,2.0,15.0,44,0.00,,---,0.00,VWS V14.01,2013-03-30 15:29:00,
2013-03-30 11:34:00,50.1,29.0,30.11,SSW,198,4.0,15.0,44,0.00,,---,0.00,VWS V14.01,2013-03-30 15:34:00,
2013-03-30 11:39:00,50.0,29.0,30.11,SE,125,9.0,15.0,44,0.00,,---,0.00,VWS V14.01,2013-03-30 15:39:00,
2013-03-30 11:44:00,50.1,28.5,30.11,SSW,212,6.0,15.0,43,0.00,,---,0.00,VWS V14.01,2013-03-30 15:44:00,
2013-03-30 11:49:00,50.0,28.4,30.10,SSW,203,5.0,15.0,43,0.00,,---,0.00,VWS V14.01,2013-03-30 15:49:00,
2013-03-30 11:54:00,50.3,28.7,30.10,SSE,161,2.0,15.0,43,0.00,,---,0.00,VWS V14.01,2013-03-30 15:54:00,
2013-03-30 11:59:00,50.9,28.6,30.09,SW,234,10.0,15.0,42,0.00,,---,0.00,VWS V14.01,2013-03-30 15:59:00,
2013-03-30 12:04:00,51.4,28.5,30.10,SW,219,5.0,12.0,41,0.00,,---,0.00,VWS V14.01,2013-03-30 16:04:00,
2013-03-30 12:09:00,50.4,27.6,30.10,WSW,250,9.0,13.0,41,0.00,,---,0.00,VWS V14.01,2013-03-30 16:09:00,
2013-03-30 12:14:00,50.1,27.3,30.10,SW,221,5.0,15.0,41,0.00,,---,0.00,VWS V14.01,2013-03-30 16:14:00,
2013-03-30 12:19:00,50.1,27.9,30.09,South,178,6.0,15.0,42,0.00,,---,0.00,VWS V14.01,2013-03-30 16:19:00,
2013-03-30 12:24:00,50.7,29.0,30.09,South,179,4.0,15.0,43,0.00,,---,0.00,VWS V14.01,2013-03-30 16:24:00,
2013-03-30 12:29:00,50.7,27.9,30.09,SW,217,4.0,15.0,41,0.00,,---,0.00,VWS V14.01,2013-03-30 16:29:00,
2013-03-30 12:34:00,50.7,27.9,30.08,SE,138,5.0,15.0,41,0.00,,---,0.00,VWS V14.01,2013-03-30 16:34:00,
2013-03-30 12:39:00,51.0,27.5,30.08,SSW,203,12.0,15.0,40,0.00,,---,0.00,VWS V14.01,2013-03-30 16:39:00,
2013-03-30 12:44:00,51.1,28.2,30.08,SSE,161,12.0,17.0,41,0.00,,---,0.00,VWS V14.01,2013-03-30 16:44:00,
2013-03-30 12:49:00,51.1,27.6,30.08,SE,141,7.0,17.0,40,0.00,,---,0.00,VWS V14.01,2013-03-30 16:49:00,
2013-03-30 12:54:00,51.3,27.2,30.08,WSW,242,4.0,17.0,39,0.00,,---,0.00,VWS V14.01,2013-03-30 16:54:00,
2013-03-30 12:59:00,51.1,27.0,30.08,South,176,4.0,17.0,39,0.00,,---,0.00,VWS V14.01,2013-03-30 16:59:00,
2013-03-30 13:04:00,51.5,27.4,30.07,SSE,150,6.0,12.0,39,0.00,,---,0.00,VWS V14.01,2013-03-30 17:04:00,
2013-03-30 13:09:00,51.9,27.7,30.07,SSW,212,8.0,15.0,39,0.00,,---,0.00,VWS V14.01,2013-03-30 17:09:00,
2013-03-30 13:14:00,51.9,26.5,30.06,SW,226,9.0,15.0,37,0.00,,---,0.00,VWS V14.01,2013-03-30 17:14:00,
2013-03-30 13:19:00,51.7,26.3,30.06,SSW,213,6.0,15.0,37,0.00,,---,0.00,VWS V14.01,2013-03-30 17:19:00,
2013-03-30 13:24:00,51.8,27.0,30.06,SE,132,2.0,15.0,38,0.00,,---,0.00,VWS V14.01,2013-03-30 17:24:00,
2013-03-30 13:29:00,52.0,27.8,30.06,SSW,196,7.0,16.0,39,0.00,,---,0.00,VWS V14.01,2013-03-30 17:29:00,
2013-03-30 13:34:00,51.8,27.6,30.05,SE,134,11.0,16.0,39,0.00,,---,0.00,VWS V14.01,2013-03-30 17:34:00,
2013-03-30 13:39:00,52.6,28.4,30.05,SSE,156,4.0,16.0,39,0.00,,---,0.00,VWS V14.01,2013-03-30 17:39:00,
2013-03-30 13:44:00,52.3,28.1,30.05,SW,235,3.0,16.0,39,0.00,,---,0.00,VWS V14.01,2013-03-30 17:44:00,
2013-03-30 13:49:00,52.5,27.6,30.05,SSE,159,9.0,18.0,38,0.00,,---,0.00,VWS V14.01,2013-03-30 17:49:00,
2013-03-30 13:54:00,52.9,28.0,30.05,South,169,9.0,18.0,38,0.00,,---,0.00,VWS V14.01,2013-03-30 17:54:00,
2013-03-30 13:59:00,53.2,27.0,30.05,SSW,209,4.0,18.0,36,0.00,,---,0.00,VWS V14.01,2013-03-30 17:59:00,
2013-03-30 14:04:00,53.5,27.2,30.05,SW,236,4.0,13.0,36,0.00,,---,0.00,VWS V14.01,2013-03-30 18:04:00,
2013-03-30 14:09:00,53.1,26.9,30.05,SW,219,13.0,18.0,36,0.00,,---,0.00,VWS V14.01,2013-03-30 18:09:00,
2013-03-30 14:14:00,52.7,26.5,30.05,WSW,240,9.0,18.0,36,0.00,,---,0.00,VWS V14.01,2013-03-30 18:14:00,
2013-03-30 14:19:00,53.2,27.0,30.05,WSW,250,10.0,18.0,36,0.00,,---,0.00,VWS V14.01,2013-03-30 18:19:00,
2013-03-30 14:24:00,53.6,28.0,30.04,WSW,237,0.0,18.0,37,0.00,,---,0.00,VWS V14.01,2013-03-30 18:24:00,
2013-03-30 14:29:00,53.8,27.5,30.04,South,172,7.0,18.0,36,0.00,,---,0.00,VWS V14.01,2013-03-30 18:29:00,
2013-03-30 14:34:00,53.6,28.0,30.04,SSW,202,5.0,18.0,37,0.00,,---,0.00,VWS V14.01,2013-03-30 18:34:00,
2013-03-30 14:39:00,53.9,27.6,30.04,SW,217,6.0,18.0,36,0.00,,---,0.00,VWS V14.01,2013-03-30 18:39:00,
2013-03-30 14:44:00,53.9,26.9,30.03,WSW,237,6.0,18.0,35,0.00,,---,0.00,VWS V14.01,2013-03-30 18:44:00,
2013-03-30 14:49:00,54.0,27.0,30.03,SSW,208,7.0,18.0,35,0.00,,---,0.00,VWS V14.01,2013-03-30 18:49:00,
2013-03-30 14:54:00,54.0,27.0,30.03,WNW,300,6.0,18.0,35,0.00,,---,0.00,VWS V14.01,2013-03-30 18:54:00,
2013-03-30 14:59:00,54.5,27.4,30.02,SW,225,9.0,18.0,35,0.00,,---,0.00,VWS V14.01,2013-03-30 18:59:00,
2013-03-30 15:04:00,54.5,27.4,30.02,South,190,6.0,14.0,35,0.00,,---,0.00,VWS V14.01,2013-03-30 19:04:00,
2013-03-30 15:09:00,54.7,27.6,30.02,SW,227,5.0,17.0,35,0.00,,---,0.00,VWS V14.01,2013-03-30 19:09:00,
2013-03-30 15:14:00,54.6,28.2,30.02,SW,227,5.0,17.0,36,0.00,,---,0.00,VWS V14.01,2013-03-30 19:14:00,
2013-03-30 15:19:00,54.4,28.0,30.02,SW,229,1.0,17.0,36,0.00,,---,0.00,VWS V14.01,2013-03-30 19:19:00,
2013-03-30 15:24:00,55.1,28.6,30.01,SSE,168,4.0,17.0,36,0.00,,---,0.00,VWS V14.01,2013-03-30 19:24:00,
2013-03-30 15:29:00,55.6,29.1,30.01,WSW,250,7.0,17.0,36,0.00,,---,0.00,VWS V14.01,2013-03-30 19:29:00,
2013-03-30 15:34:00,55.7,28.5,30.01,WNW,289,9.0,17.0,35,0.00,,---,0.00,VWS V14.01,2013-03-30 19:34:00,
2013-03-30 15:39:00,55.5,29.0,30.00,WSW,248,1.0,17.0,36,0.00,,---,0.00,VWS V14.01,2013-03-30 19:39:00,
2013-03-30 15:44:00,55.5,27.6,30.00,West,269,3.0,17.0,34,0.00,,---,0.00,VWS V14.01,2013-03-30 19:44:00,
2013-03-30 15:49:00,55.1,26.5,30.00,SW,227,8.0,18.0,33,0.00,,---,0.00,VWS V14.01,2013-03-30 19:49:00,
2013-03-30 15:54:00,55.3,26.7,30.00,SSW,195,6.0,18.0,33,0.00,,---,0.00,VWS V14.01,2013-03-30 19:54:00,
2013-03-30 15:59:00,55.1,26.5,30.00,SW,223,4.0,18.0,33,0.00,,---,0.00,VWS V14.01,2013-03-30 19:59:00,
2013-03-30 16:04:00,55.4,24.5,30.00,WSW,254,6.0,17.0,30,0.00,,---,0.00,VWS V14.01,2013-03-30 20:04:00,
2013-03-30 16:09:00,55.1,23.4,29.99,WSW,239,4.0,17.0,29,0.00,,---,0.00,VWS V14.01,2013-03-30 20:09:00,
2013-03-30 16:14:00,55.2,23.5,29.99,SSW,213,3.0,17.0,29,0.00,,---,0.00,VWS V14.01,2013-03-30 20:14:00,
2013-03-30 16:19:00,55.6,23.0,29.99,SW,230,7.0,17.0,28,0.00,,---,0.00,VWS V14.01,2013-03-30 20:19:00,
2013-03-30 16:24:00,55.7,21.4,29.98,SSW,203,9.0,17.0,26,0.00,,---,0.00,VWS V14.01,2013-03-30 20:24:00,
2013-03-30 16:29:00,55.3,21.9,29.99,SSW,205,4.0,17.0,27,0.00,,---,0.00,VWS V14.01,2013-03-30 20:29:00,
2013-03-30 16:34:00,55.1,21.7,29.98,South,185,3.0,17.0,27,0.00,,---,0.00,VWS V14.01,2013-03-30 20:34:00,
2013-03-30 16:39:00,54.9,23.3,29.98,SSW,212,10.0,19.0,29,0.00,,---,0.00,VWS V14.01,2013-03-30 20:39:00,
2013-03-30 16:44:00,54.7,23.1,29.98,SW,220,2.0,19.0,29,0.00,,---,0.00,VWS V14.01,2013-03-30 20:44:00,
2013-03-30 16:49:00,54.9,24.1,29.98,South,186,11.0,19.0,30,0.00,,---,0.00,VWS V14.01,2013-03-30 20:49:00,
2013-03-30 16:54:00,55.1,23.4,29.98,SSW,194,14.0,19.0,29,0.00,,---,0.00,VWS V14.01,2013-03-30 20:54:00,
2013-03-30 16:59:00,55.0,23.4,29.97,SW,234,5.0,19.0,29,0.00,,---,0.00,VWS V14.01,2013-03-30 20:59:00,
2013-03-30 17:04:00,54.7,23.1,29.98,SSW,202,9.0,17.0,29,0.00,,---,0.00,VWS V14.01,2013-03-30 21:04:00,
2013-03-30 17:09:00,54.9,23.3,29.97,WSW,251,5.0,17.0,29,0.00,,---,0.00,VWS V14.01,2013-03-30 21:09:00,
2013-03-30 17:14:00,54.9,23.3,29.97,SW,221,7.0,17.0,29,0.00,,---,0.00,VWS V14.01,2013-03-30 21:14:00,
2013-03-30 17:19:00,55.0,23.4,29.97,SW,215,6.0,17.0,29,0.00,,---,0.00,VWS V14.01,2013-03-30 21:19:00,
2013-03-30 17:24:00,55.3,23.6,29.97,WSW,248,7.0,17.0,29,0.00,,---,0.00,VWS V14.01,2013-03-30 21:24:00,
2013-03-30 17:29:00,55.1,23.4,29.96,West,259,2.0,17.0,29,0.00,,---,0.00,VWS V14.01,2013-03-30 21:29:00,
2013-03-30 17:34:00,55.3,23.6,29.96,SW,219,7.0,17.0,29,0.00,,---,0.00,VWS V14.01,2013-03-30 21:34:00,
2013-03-30 17:39:00,55.1,23.4,29.96,WSW,242,6.0,17.0,29,0.00,,---,0.00,VWS V14.01,2013-03-30 21:39:00,
2013-03-30 17:44:00,54.9,23.3,29.96,WNW,294,7.0,17.0,29,0.00,,---,0.00,VWS V14.01,2013-03-30 21:44:00,
2013-03-30 17:49:00,55.0,23.4,29.96,SSW,213,7.0,17.0,29,0.00,,---,0.00,VWS V14.01,2013-03-30 21:49:00,
2013-03-30 17:54:00,54.6,23.0,29.95,WSW,241,1.0,17.0,29,0.00,,---,0.00,VWS V14.01,2013-03-30 21:54:00,
2013-03-30 17:59:00,54.8,24.0,29.95,West,260,2.0,17.0,30,0.00,,---,0.00,VWS V14.01,2013-03-30 21:59:00,
2013-03-30 18:04:00,55.0,23.4,29.95,South,190,9.0,13.0,29,0.00,,---,0.00,VWS V14.01,2013-03-30 22:04:00,
2013-03-30 18:09:00,54.8,24.0,29.94,SW,232,11.0,13.0,30,0.00,,---,0.00,VWS V14.01,2013-03-30 22:09:00,
2013-03-30 18:14:00,54.6,23.8,29.94,SW,223,4.0,21.0,30,0.00,,---,0.00,VWS V14.01,2013-03-30 22:14:00,
2013-03-30 18:19:00,54.6,23.8,29.94,SW,219,7.0,21.0,30,0.00,,---,0.00,VWS V14.01,2013-03-30 22:19:00,
2013-03-30 18:24:00,54.5,23.7,29.94,WSW,250,9.0,21.0,30,0.00,,---,0.00,VWS V14.01,2013-03-30 22:24:00,
2013-03-30 18:29:00,54.6,23.8,29.94,ESE,111,0.0,21.0,30,0.00,,---,0.00,VWS V14.01,2013-03-30 22:29:00,
2013-03-30 18:34:00,54.7,24.7,29.94,WSW,240,7.0,21.0,31,0.00,,---,0.00,VWS V14.01,2013-03-30 22:34:00,
2013-03-30 18:39:00,54.6,23.8,29.94,SSW,211,7.0,21.0,30,0.00,,---,0.00,VWS V14.01,2013-03-30 22:39:00,
2013-03-30 18:44:00,54.5,24.5,29.94,SSW,205,7.0,21.0,31,0.00,,---,0.00,VWS V14.01,2013-03-30 22:44:00,
2013-03-30 18:49:00,54.4,25.2,29.94,SW,231,11.0,21.0,32,0.00,,---,0.00,VWS V14.01,2013-03-30 22:49:00,
2013-03-30 18:54:00,54.2,25.7,29.94,SSW,200,5.0,21.0,33,0.00,,---,0.00,VWS V14.01,2013-03-30 22:54:00,
2013-03-30 18:59:00,54.1,25.6,29.94,SW,230,6.0,21.0,33,0.00,,---,0.00,VWS V14.01,2013-03-30 22:59:00,
2013-03-30 19:04:00,54.1,26.4,29.94,SSW,211,9.0,15.0,34,0.00,,---,0.00,VWS V14.01,2013-03-30 23:04:00,
2013-03-30 19:09:00,54.1,26.4,29.94,SW,222,6.0,15.0,34,0.00,,---,0.00,VWS V14.01,2013-03-30 23:09:00,
2013-03-30 19:14:00,54.1,26.4,29.93,SW,223,3.0,15.0,34,0.00,,---,0.00,VWS V14.01,2013-03-30 23:14:00,
2013-03-30 19:19:00,53.9,26.9,29.93,SW,230,3.0,15.0,35,0.00,,---,0.00,VWS V14.01,2013-03-30 23:19:00,
2013-03-30 19:24:00,53.7,26.7,29.93,SW,225,5.0,15.0,35,0.00,,---,0.00,VWS V14.01,2013-03-30 23:24:00,
2013-03-30 19:29:00,53.5,27.2,29.93,SW,236,2.0,15.0,36,0.00,,---,0.00,VWS V14.01,2013-03-30 23:29:00,
2013-03-30 19:34:00,53.4,27.1,29.93,SW,223,10.0,15.0,36,0.00,,---,0.00,VWS V14.01,2013-03-30 23:34:00,
2013-03-30 19:39:00,53.2,27.6,29.93,SW,220,11.0,15.0,37,0.00,,---,0.00,VWS V14.01,2013-03-30 23:39:00,
2013-03-30 19:44:00,53.1,27.5,29.94,SSW,209,4.0,15.0,37,0.00,,---,0.00,VWS V14.01,2013-03-30 23:44:00,
2013-03-30 19:49:00,52.9,28.0,29.93,SW,221,5.0,15.0,38,0.00,,---,0.00,VWS V14.01,2013-03-30 23:49:00,
2013-03-30 19:54:00,52.7,27.8,29.93,SW,234,3.0,15.0,38,0.00,,---,0.00,VWS V14.01,2013-03-30 23:54:00,
2013-03-30 19:59:00,52.6,28.4,29.93,SSW,212,5.0,15.0,39,0.00,,---,0.00,VWS V14.01,2013-03-30 23:59:00,
2013-03-30 20:04:00,52.5,28.3,29.93,WSW,240,6.0,14.0,39,0.00,,---,0.00,VWS V14.01,2013-03-31 00:04:00,
2013-03-30 20:09:00,52.4,28.2,29.93,SSW,207,10.0,14.0,39,0.00,,---,0.00,VWS V14.01,2013-03-31 00:09:00,
2013-03-30 20:14:00,52.2,28.6,29.93,WSW,238,3.0,14.0,40,0.00,,---,0.00,VWS V14.01,2013-03-31 00:14:00,
2013-03-30 20:19:00,52.2,28.6,29.92,West,277,3.0,14.0,40,0.00,,---,0.00,VWS V14.01,2013-03-31 00:19:00,
2013-03-30 20:24:00,52.0,28.5,29.93,SW,229,1.0,14.0,40,0.00,,---,0.00,VWS V14.01,2013-03-31 00:24:00,
2013-03-30 20:29:00,52.0,28.5,29.92,SSW,205,2.0,14.0,40,0.00,,---,0.00,VWS V14.01,2013-03-31 00:29:00,
2013-03-30 20:34:00,51.9,29.0,29.92,SW,221,5.0,14.0,41,0.00,,---,0.00,VWS V14.01,2013-03-31 00:34:00,
2013-03-30 20:39:00,51.8,29.5,29.92,SW,231,1.0,14.0,42,0.00,,---,0.00,VWS V14.01,2013-03-31 00:39:00,
2013-03-30 20:44:00,51.6,29.3,29.92,SSW,212,6.0,14.0,42,0.00,,---,0.00,VWS V14.01,2013-03-31 00:44:00,
2013-03-30 20:49:00,51.5,29.2,29.92,SSW,213,5.0,14.0,42,0.00,,---,0.00,VWS V14.01,2013-03-31 00:49:00,
2013-03-30 20:54:00,51.5,29.2,29.92,SW,233,1.0,14.0,42,0.00,,---,0.00,VWS V14.01,2013-03-31 00:54:00,
2013-03-30 20:59:00,51.5,29.8,29.92,SSW,211,3.0,14.0,43,0.00,,---,0.00,VWS V14.01,2013-03-31 00:59:00,
2013-03-30 21:04:00,51.2,29.5,29.91,SSW,211,2.0,4.0,43,0.00,,---,0.00,VWS V14.01,2013-03-31 01:04:00,
2013-03-30 21:09:00,51.0,29.9,29.91,SSW,213,3.0,4.0,44,0.00,,---,0.00,VWS V14.01,2013-03-31 01:09:00,
2013-03-30 21:14:00,50.8,29.7,29.91,SSW,209,0.0,5.0,44,0.00,,---,0.00,VWS V14.01,2013-03-31 01:14:00,
2013-03-30 21:19:00,50.5,29.4,29.91,South,186,3.0,5.0,44,0.00,,---,0.00,VWS V14.01,2013-03-31 01:19:00,
2013-03-30 21:24:00,50.3,29.8,29.91,South,186,4.0,7.0,45,0.00,,---,0.00,VWS V14.01,2013-03-31 01:24:00,
2013-03-30 21:29:00,49.9,29.4,29.92,SSE,168,0.0,7.0,45,0.00,,---,0.00,VWS V14.01,2013-03-31 01:29:00,
2013-03-30 21:34:00,49.5,29.6,29.91,South,184,4.0,7.0,46,0.00,,---,0.00,VWS V14.01,2013-03-31 01:34:00,
2013-03-30 21:39:00,49.2,29.9,29.91,South,174,0.0,7.0,47,0.00,,---,0.00,VWS V14.01,2013-03-31 01:39:00,
2013-03-30 21:44:00,48.9,29.6,29.91,SSW,196,4.0,7.0,47,0.00,,---,0.00,VWS V14.01,2013-03-31 01:44:00,
2013-03-30 21:49:00,48.7,29.9,29.91,SSW,210,6.0,7.0,48,0.00,,---,0.00,VWS V14.01,2013-03-31 01:49:00,
2013-03-30 21:54:00,48.5,29.7,29.91,SSW,201,7.0,7.0,48,0.00,,---,0.00,VWS V14.01,2013-03-31 01:54:00,
2013-03-30 21:59:00,48.3,29.5,29.91,SSW,194,5.0,7.0,48,0.00,,---,0.00,VWS V14.01,2013-03-31 01:59:00,
2013-03-30 22:04:00,48.3,29.5,29.91,SSW,205,5.0,10.0,48,0.00,,---,0.00,VWS V14.01,2013-03-31 02:04:00,
2013-03-30 22:09:00,48.2,29.5,29.90,SSW,194,5.0,10.0,48,0.00,,---,0.00,VWS V14.01,2013-03-31 02:09:00,
2013-03-30 22:14:00,48.0,29.3,29.90,SSW,203,3.0,10.0,48,0.00,,---,0.00,VWS V14.01,2013-03-31 02:14:00,
2013-03-30 22:19:00,47.8,29.6,29.90,South,171,2.0,10.0,49,0.00,,---,0.00,VWS V14.01,2013-03-31 02:19:00,
2013-03-30 22:24:00,47.6,29.4,29.90,South,180,4.0,10.0,49,0.00,,---,0.00,VWS V14.01,2013-03-31 02:24:00,
2013-03-30 22:29:00,47.4,29.2,29.90,South,180,4.0,10.0,49,0.00,,---,0.00,VWS V14.01,2013-03-31 02:29:00,
2013-03-30 22:34:00,47.2,29.5,29.90,South,173,3.0,10.0,50,0.00,,---,0.00,VWS V14.01,2013-03-31 02:34:00,
2013-03-30 22:39:00,47.2,29.5,29.90,SSW,192,4.0,10.0,50,0.00,,---,0.00,VWS V14.01,2013-03-31 02:39:00,
2013-03-30 22:44:00,47.2,29.5,29.90,South,169,3.0,10.0,50,0.00,,---,0.00,VWS V14.01,2013-03-31 02:44:00,
2013-03-30 22:49:00,47.1,29.4,29.89,South,183,2.0,10.0,50,0.00,,---,0.00,VWS V14.01,2013-03-31 02:49:00,
2013-03-30 22:54:00,46.9,29.7,29.89,South,178,2.0,10.0,51,0.00,,---,0.00,VWS V14.01,2013-03-31 02:54:00,
2013-03-30 22:59:00,46.8,29.6,29.89,South,183,0.0,10.0,51,0.00,,---,0.00,VWS V14.01,2013-03-31 02:59:00,
2013-03-30 23:04:00,46.7,29.5,29.89,South,180,2.0,4.0,51,0.00,,---,0.00,VWS V14.01,2013-03-31 03:04:00,
2013-03-30 23:09:00,46.6,29.9,29.89,South,186,2.0,4.0,52,0.00,,---,0.00,VWS V14.01,2013-03-31 03:09:00,
2013-03-30 23:14:00,46.5,29.8,29.89,South,185,0.0,4.0,52,0.00,,---,0.00,VWS V14.01,2013-03-31 03:14:00,
2013-03-30 23:19:00,46.3,29.6,29.89,South,186,0.0,4.0,52,0.00,,---,0.00,VWS V14.01,2013-03-31 03:19:00,
2013-03-30 23:24:00,46.1,29.9,29.88,South,185,0.0,4.0,53,0.00,,---,0.00,VWS V14.01,2013-03-31 03:24:00,
2013-03-30 23:29:00,46.0,29.8,29.88,South,184,1.0,4.0,53,0.00,,---,0.00,VWS V14.01,2013-03-31 03:29:00,
2013-03-30 23:34:00,45.9,30.2,29.88,South,185,0.0,4.0,54,0.00,,---,0.00,VWS V14.01,2013-03-31 03:34:00,
2013-03-30 23:39:00,45.8,30.1,29.88,South,185,0.0,4.0,54,0.00,,---,0.00,VWS V14.01,2013-03-31 03:39:00,
2013-03-30 23:44:00,45.7,30.0,29.88,South,185,0.0,4.0,54,0.00,,---,0.00,VWS V14.01,2013-03-31 03:44:00,
2013-03-30 23:49:00,45.6,29.9,29.88,South,184,3.0,4.0,54,0.00,,---,0.00,VWS V14.01,2013-03-31 03:49:00,
2013-03-30 23:54:00,45.5,30.3,29.88,South,184,0.0,4.0,55,0.00,,---,0.00,VWS V14.01,2013-03-31 03:54:00,
2013-03-30 23:59:00,45.4,30.2,29.87,South,184,0.0,4.0,55,0.00,,---,0.00,VWS V14.01,2013-03-31 03:59:00,